AirNav   ProFlight Series 2 Aviation Headset
 
 905 users online  

PN77 Snyder Office Heliport
Kittanning, Pennsylvania, USA

GOING TO KITTANNING?


FAA INFORMATION EFFECTIVE 18 JUNE 2020

Location

FAA Identifier: PN77
Lat/Long: 40-49-01.0000N 079-33-56.0000W
40-49.016667N 079-33.933333W
40.8169444,-79.5655556
(estimated)
Elevation: 1160 ft. / 354 m (estimated)
From city: 2 miles E of KITTANNING, PA
Time zone: UTC -4 (UTC -5 during Standard Time)
Zip code: 16201

Heliport Operations

Heliport use: Private use. Permission required prior to landing
Activation date: 11/2006
Control tower: no
ARTCC: CLEVELAND CENTER
FSS: ALTOONA FLIGHT SERVICE STATION
Attendance: UNATNDD
Wind indicator: yes
Segmented circle: no

Heliport Communications

WX AWOS-3PT at BTP (18 nm W): 121.450 (724-586-6434)

Nearby radio navigation aids

VOR radial/distance  VOR name  Freq  Var
CIPr200/20.4CLARION VOR/DME112.9006W
EWCr099/29.3ELLWOOD CITY VOR/DME115.8008W
AGCr043/38.9ALLEGHENY VOR/DME110.0009W
FKLr167/(39.5)FRANKLIN VOR109.6006W

Heliport Services

Runway Information

Helipad H1

Dimensions: 50 x 50 ft. / 15 x 15 m
Surface: turf
Traffic pattern: leftleft

Heliport Ownership and Management from official FAA records

Ownership: Privately-owned
Owner: BUFFALO VALLEY, LTD
ONE GLADE PARK EAST, P.O. BOX 1022
KITTANNING, PA 16201
Phone 724-548-8101
Manager: MARK A SNYDER
ONE GLADE PARK EAST
KITTANNING, PA 16201
Phone 724-548-8101

Additional Remarks

A52-H1 70 FT TREES NORTH & 25 FT PLINES EAST OF HELIPAD.
FOR CD CTC CLEVELAND ARTCC AT 440-774-0234.

Instrument Procedures

There are no published instrument procedures at PN77.

Some nearby airports with instrument procedures:

6P7 - McVille Airport (5 nm S)
KBTP - Pittsburgh/Butler Regional Airport (18 nm W)
KIDI - Indiana County Airport (Jimmy Stewart Field) (24 nm SE)
KAXQ - Clarion County Airport (25 nm N)
KPJC - Zelienople Municipal Airport (27 nm W)
 
Loc | Ops | Rwys | IFR | FBO | Links
Com | Nav | Svcs | Stats | Notes
Area around PN77 (Snyder Office Heliport)
 
Road maps at: MapQuest Bing Google
 
Aerial photo
No photo
 
Sectional chart

 
Airport distance calculator
Flying to Snyder Office Heliport? Find the distance to fly.

From to PN77

Sunrise and sunset
Times for 07-Jul-2020
 Local
(UTC-4)
 Zulu
(UTC)
Morning civil twilight05:2309:23
Sunrise05:5509:55
Sunset20:5100:51
Evening civil twilight21:2401:24

Current date and time
Zulu (UTC)  08-Jul-2020 01:42:20
Local (UTC-4)  07-Jul-2020 21:42:20
 
METAR
KBTP 
18nm W 
080056Z AUTO 16003KT 9SM -RA BKN090 BKN120 21/21 A3004 RMK AO2 SLP170 P0003 T02110206
KIDI 
25nm SE 
080115Z AUTO 20006KT 5SM BR SCT004 BKN040 OVC060 21/21 A3010 RMK A01
KAGC 
32nm SW 
080053Z 00000KT 10SM CLR 23/19 A3003 RMK AO2 SLP163 T02330194
KLBE 
34nm S 
080047Z 00000KT 4SM -RA FEW006 BKN036 21/21 A3006
TAF
KAGC 
32nm SW 
071954Z 0720/0818 23005KT P6SM VCTS BKN050CB TEMPO 0721/0724 5SM TSRA FM080000 17004KT P6SM BKN100 FM080600 00000KT P6SM SCT200
KLBE 
34nm S 
071955Z 0720/0818 23004KT P6SM VCTS BKN050CB TEMPO 0721/0724 5SM TSRA FM080200 00000KT P6SM BKN100 FM080600 00000KT P6SM SCT200 FM081600 26003KT P6SM VCSH SCT100
KFKL 
36nm N 
071958Z 0720/0818 24005KT P6SM VCTS BKN050CB TEMPO 0721/0724 3SM TSRA FM080000 21003KT P6SM BKN100 FM081100 00000KT 5SM BR SCT100 FM081300 22003KT P6SM SCT100
KDUJ 
37nm NE 
071959Z 0720/0818 23005KT P6SM VCSH BKN050 TEMPO 0722/0724 5SM TSRA OVC035CB FM080000 21003KT P6SM BKN100 FM080900 00000KT 3SM BR SCT010 FM081300 00000KT P6SM SCT100
KPIT 
37nm SW 
072055Z 0721/0824 22005KT P6SM VCTS OVC050CB TEMPO 0721/0724 VRB20G30KT 1SM +TSRA OVC025CB FM080000 18004KT P6SM BKN100 FM080600 00000KT P6SM SCT200 FM081800 25003KT P6SM VCTS SCT100CB
KBVI 
38nm W 
071954Z 0720/0818 23005KT P6SM VCTS BKN050CB TEMPO 0720/0723 VRB15G25KT 3SM TSRA FM080000 00000KT P6SM BKN100 FM081300 00000KT P6SM SCT180
NOTAMs
Click for the latest NOTAMs
NOTAMs are issued by the DoD/FAA and will open in a separate window not controlled by AirNav.

 

 
 

Would you like to see your business listed on this page?

 If your business provides an interesting product or service to pilots, flight crews, aircraft, or users of the Snyder Office Heliport, you should consider listing it here.  To start the listing process, click on the button below
 
Add a business
 

Other Pages about Snyder Office Heliport

Update a link
 
Copyright © AirNav, LLC. All rights reserved. Privacy Policy  Contact